Flight Track Log - Related Links

Times and Time Zones

All times are in EDT time to prevent confusion due to time zone crossing. See the N2158U flight status page for this flight to view local times or setup timezone preferences in your user account.

Time Position Orientation Groundspeed Altitude Reporting Facility
EDT Latitude Longitude Course Direction KTS MPH feet Rate Location/Type
Mon 07:52:06 AM 40.8333 -73.1333 345° North 172 198 2,300  Level New York TRACON
Mon 07:53:06 AM 40.8833 -73.1333 360° North 202 232 4,400 2,133 Climbing New York TRACON
Mon 07:53:36 AM 40.9061 -73.1283 North 195 224 5,500 1,714 Climbing Boston Center
Mon 07:54:37 AM 40.9706 -73.1275 North 222 255 7,000 738 Climbing Boston Center
Mon 07:55:38 AM 41.0419 -73.1269 360° North 247 284 7,000  Level Boston Center
Mon 07:56:39 AM 41.1175 -73.1242 North 265 305 7,000  Level Boston Center
Mon 07:57:00 AM 41.1974 -73.1339 345° North  Level FlightAware Approximate
Mon 07:57:41 AM 41.2072 -73.1333 356° North 266 306 7,000  Level Boston Center
Mon 07:58:42 AM 41.2808 -73.1764 336° Northwest 273 314 7,000  Level Boston Center
Mon 07:59:43 AM 41.3511 -73.2042 343° North 267 307 7,000  Level Boston Center
Mon 08:00:44 AM 41.4172 -73.2328 342° North 254 292 7,000  Level Boston Center
Mon 08:01:45 AM 41.4825 -73.2594 343° North 248 285 7,000  Level Boston Center
Mon 08:02:46 AM 41.5525 -73.2894 342° North 247 284 7,000  Level Boston Center
Mon 08:03:47 AM 41.6222 -73.3183 343° North 256 295 7,000  Level Boston Center
Mon 08:04:49 AM 41.6953 -73.3500 342° North 272 313 7,000 -98 Level Boston Center
Mon 08:05:50 AM 41.7692 -73.3817 342° North 275 316 6,800 -492 Descending Boston Center
Mon 08:06:51 AM 41.8450 -73.4144 342° North 270 311 6,000 -689 Descending Boston Center
Mon 08:07:52 AM 41.8928 -73.4617 324° Northwest 240 276 5,400 -492 Descending Boston Center
Mon 08:08:53 AM 41.8569 -73.5281 234° Southwest 223 257 5,000 -197 Descending Boston Center
Mon 08:09:54 AM 41.8147 -73.5881 227° Southwest 222 255 5,000  Level Boston Center
Mon 08:10:55 AM 41.7697 -73.6542 228° Southwest 222 255 5,000 -244 Level Boston Center
Mon 08:11:57 AM 41.7281 -73.7150 227° Southwest 222 255 4,500 -488 Descending Boston Center
Mon 08:12:58 AM 41.6886 -73.7753 229° Southwest 218 251 4,000 -246 Descending Boston Center
Mon 08:13:59 AM 41.6439 -73.8442 229° Southwest 243 280 4,000  Level Boston Center
Mon 08:15:00 AM 41.6042 -73.9306 238° Southwest 254 292 4,000  Level Boston Center
Mon 08:16:01 AM 41.5778 -74.0142 247° West 251 289 4,000  Level Boston Center
Mon 08:17:02 AM 41.5681 -74.1056 262° West 250 288 4,000  Level Boston Center
Mon 08:18:03 AM 41.5558 -74.2039 261° West 251 289 4,000 -293 Level Boston Center
Mon 08:19:05 AM 41.5308 -74.2822 247° West 228 262 3,400 -780 Descending Boston Center
Mon 08:20:06 AM 41.4869 -74.3022 199° South 173 199 2,400 -836 Descending Boston Center
Mon 08:21:07 AM 41.4842 -74.2456 94° East 157 181 1,700 -393 Descending Boston Center
Mon 08:22:08 AM 41.4903 -74.2000 80° East 131 151 1,600 -295 Descending Boston Center
Mon 08:23:09 AM 41.4958 -74.1653 78° East 96 110 1,100 -492 Descending Boston Center
Mon 08:24:10 AM 41.5011 -74.1317 78° East 95 109 600 -492 Descending Boston Center

Login

Don't have an account? Register now (free) for customized features, flight alerts, and more!